createdAt,value
2018-08-16T00:00:00.979Z,1029.66518357
2018-08-16T00:00:13.533Z,1029.63131969
2018-08-16T00:00:26.175Z,1029.63131969
2018-08-16T00:00:38.739Z,1029.63131969
2018-08-16T00:00:51.302Z,1029.63131969
2018-08-16T00:01:03.868Z,1029.66518357
2018-08-16T00:01:16.400Z,1029.66518357
2018-08-16T00:01:28.948Z,1029.66518357
2018-08-16T00:01:41.587Z,1029.66518357
2018-08-16T00:01:54.188Z,1029.66518357
2018-08-16T00:02:06.723Z,1029.63131969
2018-08-16T00:02:19.268Z,1029.63131969
2018-08-16T00:02:31.824Z,1029.63131969
2018-08-16T00:02:44.444Z,1029.63131969
2018-08-16T00:02:57.196Z,1029.63131969
2018-08-16T00:03:09.743Z,1029.73291133
2018-08-16T00:03:22.278Z,1029.73291133
2018-08-16T00:03:34.801Z,1029.73291133
2018-08-16T00:03:47.342Z,1029.73291133
2018-08-16T00:03:59.904Z,1029.73291133
2018-08-16T00:04:12.454Z,1029.59745581
2018-08-16T00:04:24.982Z,1029.59745581
2018-08-16T00:04:37.531Z,1029.59745581
2018-08-16T00:04:50.075Z,1029.59745581
2018-08-16T00:05:02.615Z,1029.63131969
2018-08-16T00:05:15.141Z,1029.63131969
2018-08-16T00:05:27.676Z,1029.63131969
2018-08-16T00:05:40.216Z,1029.63131969
2018-08-16T00:05:52.756Z,1029.63131969
2018-08-16T00:06:05.283Z,1029.63131969
2018-08-16T00:06:17.818Z,1029.63131969
2018-08-16T00:06:30.350Z,1029.63131969
2018-08-16T00:06:42.887Z,1029.63131969
2018-08-16T00:06:55.421Z,1029.63131969
2018-08-16T00:07:07.939Z,1029.73291133
2018-08-16T00:07:20.479Z,1029.73291133
2018-08-16T00:07:33.021Z,1029.73291133
2018-08-16T00:07:45.905Z,1029.73291133
2018-08-16T00:07:58.381Z,1029.73291133
2018-08-16T00:08:10.830Z,1029.66518357
2018-08-16T00:08:23.346Z,1029.66518357
2018-08-16T00:08:35.881Z,1029.66518357
2018-08-16T00:08:48.399Z,1029.66518357
2018-08-16T00:09:00.917Z,1029.66518357
2018-08-16T00:09:13.460Z,1029.66518357
2018-08-16T00:09:26.018Z,1029.66518357
2018-08-16T00:09:38.579Z,1029.66518357
2018-08-16T00:09:51.119Z,1029.66518357
2018-08-16T00:10:03.668Z,1029.69904745
2018-08-16T00:10:16.220Z,1029.69904745
2018-08-16T00:10:28.746Z,1029.69904745
2018-08-16T00:10:41.296Z,1029.69904745
2018-08-16T00:10:53.835Z,1029.69904745
2018-08-16T00:11:06.356Z,1029.63131969
2018-08-16T00:11:18.885Z,1029.63131969
2018-08-16T00:11:31.424Z,1029.63131969
2018-08-16T00:11:43.955Z,1029.63131969
2018-08-16T00:11:56.504Z,1029.63131969
2018-08-16T00:12:09.010Z,1029.76677521
2018-08-16T00:12:21.545Z,1029.76677521
2018-08-16T00:12:34.071Z,1029.76677521
2018-08-16T00:12:46.637Z,1029.76677521
2018-08-16T00:12:59.200Z,1029.76677521
2018-08-16T00:13:11.731Z,1029.73291133
2018-08-16T00:13:24.253Z,1029.73291133
2018-08-16T00:13:36.803Z,1029.73291133
2018-08-16T00:13:49.334Z,1029.73291133
2018-08-16T00:14:01.872Z,1029.66518357
2018-08-16T00:14:14.411Z,1029.66518357
2018-08-16T00:14:26.979Z,1029.66518357
2018-08-16T00:14:39.518Z,1029.66518357
2018-08-16T00:14:52.042Z,1029.66518357
2018-08-16T00:15:04.626Z,1029.76677521
2018-08-16T00:15:17.224Z,1029.76677521
2018-08-16T00:15:29.772Z,1029.76677521
2018-08-16T00:15:42.419Z,1029.76677521
2018-08-16T00:15:54.970Z,1029.76677521
2018-08-16T00:16:07.500Z,1029.73291133
2018-08-16T00:16:20.036Z,1029.73291133
2018-08-16T00:16:32.571Z,1029.73291133
2018-08-16T00:16:45.136Z,1029.73291133
2018-08-16T00:16:57.666Z,1029.73291133
2018-08-16T00:17:10.198Z,1029.73291133
2018-08-16T00:17:22.751Z,1029.73291133
2018-08-16T00:17:35.387Z,1029.73291133
2018-08-16T00:17:48.069Z,1029.73291133
2018-08-16T00:18:00.654Z,1029.66518357
2018-08-16T00:18:13.363Z,1029.66518357
2018-08-16T00:18:25.902Z,1029.66518357
2018-08-16T00:18:38.429Z,1029.66518357
2018-08-16T00:18:50.956Z,1029.66518357
2018-08-16T00:19:03.490Z,1029.66518357
2018-08-16T00:19:16.021Z,1029.66518357
2018-08-16T00:19:28.566Z,1029.66518357
2018-08-16T00:19:41.119Z,1029.66518357
2018-08-16T00:19:53.659Z,1029.66518357
2018-08-16T00:20:06.211Z,1029.66518357
2018-08-16T00:20:18.732Z,1029.66518357
2018-08-16T00:20:31.253Z,1029.66518357
2018-08-16T00:20:43.782Z,1029.66518357
2018-08-16T00:20:56.317Z,1029.66518357
2018-08-16T00:21:08.847Z,1029.66518357
2018-08-16T00:21:21.383Z,1029.66518357
2018-08-16T00:21:33.904Z,1029.66518357
2018-08-16T00:21:46.441Z,1029.66518357
2018-08-16T00:21:58.968Z,1029.66518357
2018-08-16T00:22:11.491Z,1029.69904745
2018-08-16T00:22:24.234Z,1029.69904745
2018-08-16T00:22:36.766Z,1029.69904745
2018-08-16T00:22:49.302Z,1029.69904745
2018-08-16T00:23:01.820Z,1029.73291133
2018-08-16T00:23:14.346Z,1029.73291133
2018-08-16T00:23:26.861Z,1029.73291133
2018-08-16T00:23:39.385Z,1029.73291133
2018-08-16T00:23:51.910Z,1029.73291133
2018-08-16T00:24:04.469Z,1029.63131969
2018-08-16T00:24:16.990Z,1029.63131969
2018-08-16T00:24:29.513Z,1029.63131969
2018-08-16T00:24:42.048Z,1029.63131969
2018-08-16T00:24:54.581Z,1029.63131969
2018-08-16T00:25:07.114Z,1029.69904745
2018-08-16T00:25:19.650Z,1029.69904745
2018-08-16T00:25:32.199Z,1029.69904745
2018-08-16T00:25:44.836Z,1029.69904745
2018-08-16T00:25:57.404Z,1029.69904745
2018-08-16T00:26:09.935Z,1029.63131969
2018-08-16T00:26:22.473Z,1029.63131969
2018-08-16T00:26:35.011Z,1029.63131969
2018-08-16T00:26:47.574Z,1029.63131969
2018-08-16T00:27:00.104Z,1029.73291133
2018-08-16T00:27:12.799Z,1029.73291133
2018-08-16T00:27:25.375Z,1029.73291133
2018-08-16T00:27:37.921Z,1029.73291133
2018-08-16T00:27:50.463Z,1029.73291133
2018-08-16T00:28:03.002Z,1029.73291133
2018-08-16T00:28:15.540Z,1029.73291133
2018-08-16T00:28:28.080Z,1029.73291133
2018-08-16T00:28:40.625Z,1029.73291133
2018-08-16T00:28:53.207Z,1029.73291133
2018-08-16T00:29:05.761Z,1029.63131969
2018-08-16T00:29:18.297Z,1029.63131969
2018-08-16T00:29:30.852Z,1029.63131969
2018-08-16T00:29:43.421Z,1029.63131969
2018-08-16T00:29:55.959Z,1029.63131969
2018-08-16T00:30:08.486Z,1029.59745581
2018-08-16T00:30:21.288Z,1029.59745581
2018-08-16T00:30:33.817Z,1029.59745581
2018-08-16T00:30:46.360Z,1029.59745581
2018-08-16T00:30:58.906Z,1029.59745581
2018-08-16T00:31:11.477Z,1029.73291133
2018-08-16T00:31:24.150Z,1029.73291133
2018-08-16T00:31:36.681Z,1029.73291133
2018-08-16T00:31:49.213Z,1029.73291133
2018-08-16T00:32:01.743Z,1029.63131969
2018-08-16T00:32:14.291Z,1029.63131969
2018-08-16T00:32:26.825Z,1029.63131969
2018-08-16T00:32:39.355Z,1029.63131969
2018-08-16T00:32:52.058Z,1029.63131969
2018-08-16T00:33:04.591Z,1029.69904745
2018-08-16T00:33:17.114Z,1029.69904745
2018-08-16T00:33:29.682Z,1029.69904745
2018-08-16T00:33:42.193Z,1029.69904745
2018-08-16T00:33:54.785Z,1029.69904745
2018-08-16T00:34:07.319Z,1029.66518357
2018-08-16T00:34:19.846Z,1029.66518357
2018-08-16T00:34:32.401Z,1029.66518357
2018-08-16T00:34:44.944Z,1029.66518357
2018-08-16T00:34:57.497Z,1029.66518357
2018-08-16T00:35:10.038Z,1029.69904745
2018-08-16T00:35:22.606Z,1029.69904745
2018-08-16T00:35:35.156Z,1029.69904745
2018-08-16T00:35:47.699Z,1029.69904745
2018-08-16T00:36:00.269Z,1029.69904745
2018-08-16T00:36:12.828Z,1029.59745581
2018-08-16T00:36:25.396Z,1029.59745581
2018-08-16T00:36:37.953Z,1029.59745581
2018-08-16T00:36:50.504Z,1029.59745581
2018-08-16T00:37:03.238Z,1029.63131969
2018-08-16T00:37:15.766Z,1029.63131969
2018-08-16T00:37:28.305Z,1029.63131969
2018-08-16T00:37:40.845Z,1029.63131969
2018-08-16T00:37:53.402Z,1029.63131969
2018-08-16T00:38:05.966Z,1029.73291133
2018-08-16T00:38:18.498Z,1029.73291133
2018-08-16T00:38:31.024Z,1029.73291133
2018-08-16T00:38:43.559Z,1029.73291133
2018-08-16T00:38:56.110Z,1029.73291133
2018-08-16T00:39:08.681Z,1029.66518357
2018-08-16T00:39:21.226Z,1029.66518357
2018-08-16T00:39:33.747Z,1029.66518357
2018-08-16T00:39:46.272Z,1029.66518357
2018-08-16T00:39:58.822Z,1029.66518357
2018-08-16T00:40:11.348Z,1029.69904745
2018-08-16T00:40:23.885Z,1029.69904745
2018-08-16T00:40:36.471Z,1029.69904745
2018-08-16T00:40:49.038Z,1029.69904745
2018-08-16T00:41:01.600Z,1029.69904745
2018-08-16T00:41:14.145Z,1029.69904745
2018-08-16T00:41:26.684Z,1029.69904745
2018-08-16T00:41:39.217Z,1029.69904745
2018-08-16T00:41:51.766Z,1029.69904745
2018-08-16T00:42:04.413Z,1029.69904745
2018-08-16T00:42:17.002Z,1029.69904745
2018-08-16T00:42:29.557Z,1029.69904745
2018-08-16T00:42:42.095Z,1029.69904745
2018-08-16T00:42:54.632Z,1029.69904745
2018-08-16T00:43:07.170Z,1029.59745581
2018-08-16T00:43:19.702Z,1029.59745581
2018-08-16T00:43:32.227Z,1029.59745581
2018-08-16T00:43:44.761Z,1029.59745581
2018-08-16T00:43:57.313Z,1029.59745581
2018-08-16T00:44:09.863Z,1029.69904745
2018-08-16T00:44:22.406Z,1029.69904745
2018-08-16T00:44:35.530Z,1029.69904745
2018-08-16T00:44:48.126Z,1029.69904745
2018-08-16T00:45:00.694Z,1029.59745581
2018-08-16T00:45:13.247Z,1029.59745581
2018-08-16T00:45:25.820Z,1029.59745581
2018-08-16T00:45:38.341Z,1029.59745581
2018-08-16T00:45:50.880Z,1029.59745581
2018-08-16T00:46:03.434Z,1029.69904745
2018-08-16T00:46:16.005Z,1029.69904745
2018-08-16T00:46:28.544Z,1029.69904745
2018-08-16T00:46:41.218Z,1029.69904745
2018-08-16T00:46:53.903Z,1029.69904745
2018-08-16T00:47:06.430Z,1029.69904745
2018-08-16T00:47:19.041Z,1029.69904745
2018-08-16T00:47:31.589Z,1029.69904745
2018-08-16T00:47:44.151Z,1029.69904745
2018-08-16T00:47:56.729Z,1029.69904745
2018-08-16T00:48:09.323Z,1029.73291133
2018-08-16T00:48:21.852Z,1029.73291133
2018-08-16T00:48:34.380Z,1029.73291133
2018-08-16T00:48:47.007Z,1029.73291133
2018-08-16T00:48:59.534Z,1029.73291133
2018-08-16T00:49:12.236Z,1029.66518357
2018-08-16T00:49:24.814Z,1029.66518357
2018-08-16T00:49:37.355Z,1029.66518357
2018-08-16T00:49:49.937Z,1029.66518357
2018-08-16T00:50:02.521Z,1029.69904745
2018-08-16T00:50:15.073Z,1029.69904745
2018-08-16T00:50:27.615Z,1029.69904745
2018-08-16T00:50:40.177Z,1029.69904745
2018-08-16T00:50:52.702Z,1029.69904745
2018-08-16T00:51:05.233Z,1029.69904745
2018-08-16T00:51:17.831Z,1029.69904745
2018-08-16T00:51:30.386Z,1029.69904745
2018-08-16T00:51:42.918Z,1029.69904745
2018-08-16T00:51:55.534Z,1029.69904745
2018-08-16T00:52:08.057Z,1029.69904745
2018-08-16T00:52:20.596Z,1029.69904745
2018-08-16T00:52:33.119Z,1029.69904745
2018-08-16T00:52:45.690Z,1029.69904745
2018-08-16T00:52:58.239Z,1029.69904745
2018-08-16T00:53:10.785Z,1029.63131969
2018-08-16T00:53:23.320Z,1029.63131969
2018-08-16T00:53:35.839Z,1029.63131969
2018-08-16T00:53:48.406Z,1029.63131969
2018-08-16T00:54:00.911Z,1029.59745581
2018-08-16T00:54:13.437Z,1029.59745581
2018-08-16T00:54:26.210Z,1029.59745581
2018-08-16T00:54:38.719Z,1029.59745581
2018-08-16T00:54:51.246Z,1029.59745581
2018-08-16T00:55:03.776Z,1029.52972804
2018-08-16T00:55:16.448Z,1029.52972804
2018-08-16T00:55:28.964Z,1029.52972804
2018-08-16T00:55:41.479Z,1029.52972804
2018-08-16T00:55:54.017Z,1029.52972804
2018-08-16T00:56:06.543Z,1029.59745581
2018-08-16T00:56:19.076Z,1029.59745581
2018-08-16T00:56:31.592Z,1029.59745581
2018-08-16T00:56:44.099Z,1029.59745581
2018-08-16T00:56:56.615Z,1029.59745581
2018-08-16T00:57:09.145Z,1029.52972804
2018-08-16T00:57:21.681Z,1029.52972804
2018-08-16T00:57:34.200Z,1029.52972804
2018-08-16T00:57:46.742Z,1029.52972804
2018-08-16T00:57:59.280Z,1029.52972804
2018-08-16T00:58:11.810Z,1029.52972804
2018-08-16T00:58:24.338Z,1029.52972804
2018-08-16T00:58:36.867Z,1029.52972804
2018-08-16T00:58:49.535Z,1029.52972804
2018-08-16T00:59:02.067Z,1029.63131969
2018-08-16T00:59:14.778Z,1029.63131969
2018-08-16T00:59:27.412Z,1029.63131969
2018-08-16T00:59:39.953Z,1029.63131969
2018-08-16T00:59:52.481Z,1029.63131969
2018-08-16T01:00:05.035Z,1029.56359192
2018-08-16T01:00:17.551Z,1029.56359192
2018-08-16T01:00:30.123Z,1029.56359192
2018-08-16T01:00:42.677Z,1029.56359192
2018-08-16T01:00:55.231Z,1029.56359192
2018-08-16T01:01:07.784Z,1029.56359192
2018-08-16T01:01:20.315Z,1029.56359192
2018-08-16T01:01:33.099Z,1029.56359192
2018-08-16T01:01:45.872Z,1029.56359192
2018-08-16T01:01:58.444Z,1029.56359192
2018-08-16T01:02:11.106Z,1029.59745581
2018-08-16T01:02:23.666Z,1029.59745581
2018-08-16T01:02:36.396Z,1029.59745581
2018-08-16T01:02:48.925Z,1029.59745581
2018-08-16T01:03:01.447Z,1029.59745581
2018-08-16T01:03:13.981Z,1029.59745581
2018-08-16T01:03:26.528Z,1029.59745581
2018-08-16T01:03:39.065Z,1029.59745581
2018-08-16T01:03:51.598Z,1029.59745581
2018-08-16T01:04:04.140Z,1029.59745581
2018-08-16T01:04:16.690Z,1029.59745581
2018-08-16T01:04:29.246Z,1029.59745581
2018-08-16T01:04:41.776Z,1029.59745581
2018-08-16T01:04:54.312Z,1029.59745581
2018-08-16T01:05:06.875Z,1029.69904745
2018-08-16T01:05:19.427Z,1029.69904745
2018-08-16T01:05:31.963Z,1029.69904745
2018-08-16T01:05:44.509Z,1029.69904745
2018-08-16T01:05:57.061Z,1029.69904745
2018-08-16T01:06:09.585Z,1029.56359192
2018-08-16T01:06:22.125Z,1029.56359192
2018-08-16T01:06:34.658Z,1029.56359192
2018-08-16T01:06:47.352Z,1029.56359192
2018-08-16T01:06:59.890Z,1029.56359192
2018-08-16T01:07:12.496Z,1029.52972804
2018-08-16T01:07:25.021Z,1029.52972804
2018-08-16T01:07:37.612Z,1029.52972804
2018-08-16T01:07:50.159Z,1029.52972804
2018-08-16T01:08:02.700Z,1029.52972804
2018-08-16T01:08:15.245Z,1029.52972804
2018-08-16T01:08:27.791Z,1029.52972804
2018-08-16T01:08:40.398Z,1029.52972804
2018-08-16T01:08:52.954Z,1029.52972804
2018-08-16T01:09:05.572Z,1029.59745581
2018-08-16T01:09:18.131Z,1029.59745581
2018-08-16T01:09:30.683Z,1029.59745581
2018-08-16T01:09:43.223Z,1029.59745581
2018-08-16T01:09:55.743Z,1029.59745581
2018-08-16T01:10:08.268Z,1029.63131969
2018-08-16T01:10:20.822Z,1029.63131969
2018-08-16T01:10:33.379Z,1029.63131969
2018-08-16T01:10:45.950Z,1029.63131969
2018-08-16T01:10:58.493Z,1029.63131969
2018-08-16T01:11:11.054Z,1029.59745581
2018-08-16T01:11:23.660Z,1029.59745581
2018-08-16T01:11:36.325Z,1029.59745581
2018-08-16T01:11:48.865Z,1029.59745581
2018-08-16T01:12:01.394Z,1029.63131969
2018-08-16T01:12:13.964Z,1029.63131969
2018-08-16T01:12:26.614Z,1029.63131969
2018-08-16T01:12:39.207Z,1029.63131969
2018-08-16T01:12:51.736Z,1029.63131969
2018-08-16T01:13:04.255Z,1029.59745581
2018-08-16T01:13:16.812Z,1029.59745581
2018-08-16T01:13:29.401Z,1029.59745581
2018-08-16T01:13:41.979Z,1029.59745581
2018-08-16T01:13:54.524Z,1029.59745581
2018-08-16T01:14:07.057Z,1029.56359192
2018-08-16T01:14:19.643Z,1029.56359192
2018-08-16T01:14:32.179Z,1029.56359192
2018-08-16T01:14:44.698Z,1029.56359192
2018-08-16T01:14:57.238Z,1029.56359192
2018-08-16T01:15:09.803Z,1029.56359192
2018-08-16T01:15:22.342Z,1029.56359192
2018-08-16T01:15:34.875Z,1029.56359192
2018-08-16T01:15:47.415Z,1029.56359192
2018-08-16T01:15:59.949Z,1029.56359192
2018-08-16T01:16:12.503Z,1029.52972804
2018-08-16T01:16:25.013Z,1029.52972804
2018-08-16T01:16:37.545Z,1029.52972804
2018-08-16T01:16:50.077Z,1029.52972804
2018-08-16T01:17:02.617Z,1029.52972804
2018-08-16T01:17:15.168Z,1029.52972804
2018-08-16T01:17:27.951Z,1029.52972804
2018-08-16T01:17:40.672Z,1029.52972804
2018-08-16T01:17:53.216Z,1029.52972804
2018-08-16T01:18:05.777Z,1029.59745581
2018-08-16T01:18:18.375Z,1029.59745581
2018-08-16T01:18:31.100Z,1029.59745581
2018-08-16T01:18:43.633Z,1029.59745581
2018-08-16T01:18:56.163Z,1029.59745581
2018-08-16T01:19:08.674Z,1029.59745581
2018-08-16T01:19:21.253Z,1029.59745581
2018-08-16T01:19:33.828Z,1029.59745581
2018-08-16T01:19:46.362Z,1029.59745581
2018-08-16T01:19:58.910Z,1029.59745581
2018-08-16T01:20:11.761Z,1029.52972804
2018-08-16T01:20:25.547Z,1029.52972804
2018-08-16T01:20:38.125Z,1029.52972804
2018-08-16T01:20:50.650Z,1029.52972804
2018-08-16T01:21:03.206Z,1029.56359192
2018-08-16T01:21:15.777Z,1029.56359192
2018-08-16T01:21:28.319Z,1029.56359192
2018-08-16T01:21:40.852Z,1029.56359192
2018-08-16T01:21:53.428Z,1029.56359192
2018-08-16T01:22:05.969Z,1029.49586416
2018-08-16T01:22:18.681Z,1029.49586416
2018-08-16T01:22:31.220Z,1029.49586416
2018-08-16T01:22:43.759Z,1029.49586416
2018-08-16T01:22:56.386Z,1029.49586416
2018-08-16T01:23:09.065Z,1029.52972804
2018-08-16T01:23:21.608Z,1029.52972804
2018-08-16T01:23:34.113Z,1029.52972804
2018-08-16T01:23:46.671Z,1029.52972804
2018-08-16T01:23:59.211Z,1029.52972804
2018-08-16T01:24:11.739Z,1029.52972804
2018-08-16T01:24:24.293Z,1029.52972804
2018-08-16T01:24:36.833Z,1029.52972804
2018-08-16T01:24:49.367Z,1029.52972804
2018-08-16T01:25:01.890Z,1029.56359192
2018-08-16T01:25:14.453Z,1029.56359192
2018-08-16T01:25:26.997Z,1029.56359192
2018-08-16T01:25:39.662Z,1029.56359192
2018-08-16T01:25:52.189Z,1029.56359192
2018-08-16T01:26:04.741Z,1029.49586416
2018-08-16T01:26:17.306Z,1029.49586416
2018-08-16T01:26:29.818Z,1029.49586416
2018-08-16T01:26:42.377Z,1029.49586416
2018-08-16T01:26:54.901Z,1029.49586416
2018-08-16T01:27:07.435Z,1029.56359192
2018-08-16T01:27:20.054Z,1029.56359192
2018-08-16T01:27:32.619Z,1029.56359192
2018-08-16T01:27:45.199Z,1029.56359192
2018-08-16T01:27:57.741Z,1029.56359192
2018-08-16T01:28:10.266Z,1029.49586416
2018-08-16T01:28:22.862Z,1029.49586416
2018-08-16T01:28:35.406Z,1029.49586416
2018-08-16T01:28:47.950Z,1029.49586416
2018-08-16T01:29:00.482Z,1029.59745581
2018-08-16T01:29:13.023Z,1029.59745581
2018-08-16T01:29:25.578Z,1029.59745581
2018-08-16T01:29:38.138Z,1029.59745581
2018-08-16T01:29:50.660Z,1029.59745581
2018-08-16T01:30:03.192Z,1029.46200028
2018-08-16T01:30:15.739Z,1029.46200028
2018-08-16T01:30:28.285Z,1029.46200028
2018-08-16T01:30:40.850Z,1029.46200028
2018-08-16T01:30:53.409Z,1029.46200028
2018-08-16T01:31:05.955Z,1029.56359192
2018-08-16T01:31:18.483Z,1029.56359192
2018-08-16T01:31:31.043Z,1029.56359192
2018-08-16T01:31:43.592Z,1029.56359192
2018-08-16T01:31:56.123Z,1029.56359192
2018-08-16T01:32:08.676Z,1029.66518357
2018-08-16T01:32:21.273Z,1029.66518357
2018-08-16T01:32:33.853Z,1029.66518357
2018-08-16T01:32:46.589Z,1029.66518357
2018-08-16T01:32:59.149Z,1029.66518357
2018-08-16T01:33:11.706Z,1029.52972804
2018-08-16T01:33:24.283Z,1029.52972804
2018-08-16T01:33:36.802Z,1029.52972804
2018-08-16T01:33:49.449Z,1029.52972804
2018-08-16T01:34:01.974Z,1029.52972804
2018-08-16T01:34:14.513Z,1029.52972804
2018-08-16T01:34:27.039Z,1029.52972804
2018-08-16T01:34:39.601Z,1029.52972804
2018-08-16T01:34:52.220Z,1029.52972804
2018-08-16T01:35:04.748Z,1029.46200028
2018-08-16T01:35:17.288Z,1029.46200028
2018-08-16T01:35:30.039Z,1029.46200028
2018-08-16T01:35:43.587Z,1029.46200028
2018-08-16T01:35:56.589Z,1029.46200028
2018-08-16T01:36:09.129Z,1029.52972804
2018-08-16T01:36:21.650Z,1029.52972804
2018-08-16T01:36:34.193Z,1029.52972804
2018-08-16T01:36:46.725Z,1029.52972804
2018-08-16T01:36:59.238Z,1029.52972804
2018-08-16T01:37:11.909Z,1029.63131969
2018-08-16T01:37:24.453Z,1029.63131969
2018-08-16T01:37:36.994Z,1029.63131969
2018-08-16T01:37:49.646Z,1029.63131969
2018-08-16T01:38:02.181Z,1029.46200028
2018-08-16T01:38:14.717Z,1029.46200028
2018-08-16T01:38:27.237Z,1029.46200028
2018-08-16T01:38:39.780Z,1029.46200028
2018-08-16T01:38:52.328Z,1029.46200028
2018-08-16T01:39:04.852Z,1029.52972804
2018-08-16T01:39:17.412Z,1029.52972804
2018-08-16T01:39:30.288Z,1029.52972804
2018-08-16T01:39:42.846Z,1029.52972804
2018-08-16T01:39:55.384Z,1029.52972804
2018-08-16T01:40:07.967Z,1029.46200028
2018-08-16T01:40:20.503Z,1029.46200028
2018-08-16T01:40:33.093Z,1029.46200028
2018-08-16T01:40:45.641Z,1029.46200028
2018-08-16T01:40:58.169Z,1029.46200028
2018-08-16T01:41:10.725Z,1029.46200028
2018-08-16T01:41:23.306Z,1029.46200028
2018-08-16T01:41:35.853Z,1029.46200028
2018-08-16T01:41:48.408Z,1029.46200028
2018-08-16T01:42:00.958Z,1029.52972804
2018-08-16T01:42:13.526Z,1029.52972804
2018-08-16T01:42:26.084Z,1029.52972804
2018-08-16T01:42:38.638Z,1029.52972804
2018-08-16T01:42:51.202Z,1029.52972804
2018-08-16T01:43:03.739Z,1029.52972804
2018-08-16T01:43:16.288Z,1029.52972804
2018-08-16T01:43:28.845Z,1029.52972804
2018-08-16T01:43:41.393Z,1029.52972804
2018-08-16T01:43:53.950Z,1029.52972804
2018-08-16T01:44:06.656Z,1029.63131969
2018-08-16T01:44:19.196Z,1029.63131969
2018-08-16T01:44:32.014Z,1029.63131969
2018-08-16T01:44:44.525Z,1029.63131969
2018-08-16T01:44:57.092Z,1029.63131969
2018-08-16T01:45:09.648Z,1029.52972804
2018-08-16T01:45:22.232Z,1029.52972804
2018-08-16T01:45:34.772Z,1029.52972804
2018-08-16T01:45:47.386Z,1029.52972804
2018-08-16T01:45:59.978Z,1029.52972804
2018-08-16T01:46:12.521Z,1029.59745581
2018-08-16T01:46:25.086Z,1029.59745581
2018-08-16T01:46:37.770Z,1029.59745581
2018-08-16T01:46:50.297Z,1029.59745581
2018-08-16T01:47:02.852Z,1029.52972804
2018-08-16T01:47:15.392Z,1029.52972804
2018-08-16T01:47:27.910Z,1029.52972804
2018-08-16T01:47:40.473Z,1029.52972804
2018-08-16T01:47:53.034Z,1029.52972804
2018-08-16T01:48:05.590Z,1029.52972804
2018-08-16T01:48:18.103Z,1029.52972804
2018-08-16T01:48:30.649Z,1029.52972804
2018-08-16T01:48:43.192Z,1029.52972804
2018-08-16T01:48:55.919Z,1029.52972804
2018-08-16T01:49:08.692Z,1029.59745581
2018-08-16T01:49:21.256Z,1029.59745581
2018-08-16T01:49:33.786Z,1029.59745581
2018-08-16T01:49:46.302Z,1029.59745581
2018-08-16T01:49:58.817Z,1029.59745581
2018-08-16T01:50:11.365Z,1029.63131969
2018-08-16T01:50:23.888Z,1029.63131969
2018-08-16T01:50:36.436Z,1029.63131969
2018-08-16T01:50:48.967Z,1029.63131969
2018-08-16T01:51:01.485Z,1029.59745581
2018-08-16T01:51:14.051Z,1029.59745581
2018-08-16T01:51:26.596Z,1029.59745581
2018-08-16T01:51:39.126Z,1029.59745581
2018-08-16T01:51:51.643Z,1029.59745581
2018-08-16T01:52:04.241Z,1029.52972804
2018-08-16T01:52:16.782Z,1029.52972804
2018-08-16T01:52:29.296Z,1029.52972804
2018-08-16T01:52:41.819Z,1029.52972804
2018-08-16T01:52:54.335Z,1029.52972804
2018-08-16T01:53:06.882Z,1029.59745581
2018-08-16T01:53:19.459Z,1029.59745581
2018-08-16T01:53:31.987Z,1029.59745581
2018-08-16T01:53:44.529Z,1029.59745581
2018-08-16T01:53:57.096Z,1029.59745581
2018-08-16T01:54:09.647Z,1029.52972804
2018-08-16T01:54:22.251Z,1029.52972804
2018-08-16T01:54:34.806Z,1029.52972804
2018-08-16T01:54:47.350Z,1029.52972804
2018-08-16T01:54:59.881Z,1029.52972804
2018-08-16T01:55:12.420Z,1029.49586416
2018-08-16T01:55:24.947Z,1029.49586416
2018-08-16T01:55:37.487Z,1029.49586416
2018-08-16T01:55:50.074Z,1029.49586416
2018-08-16T01:56:02.615Z,1029.59745581
2018-08-16T01:56:15.168Z,1029.59745581
2018-08-16T01:56:27.690Z,1029.59745581
2018-08-16T01:56:40.268Z,1029.59745581
2018-08-16T01:56:52.806Z,1029.59745581
2018-08-16T01:57:05.330Z,1029.69904745
2018-08-16T01:57:17.932Z,1029.69904745
2018-08-16T01:57:30.470Z,1029.69904745
2018-08-16T01:57:43.011Z,1029.69904745
2018-08-16T01:57:55.557Z,1029.69904745
2018-08-16T01:58:08.122Z,1029.66518357
2018-08-16T01:58:20.660Z,1029.66518357
2018-08-16T01:58:33.198Z,1029.66518357
2018-08-16T01:58:45.792Z,1029.66518357
2018-08-16T01:58:58.346Z,1029.66518357
2018-08-16T01:59:11.075Z,1029.66518357
2018-08-16T01:59:23.622Z,1029.66518357
2018-08-16T01:59:36.157Z,1029.66518357
2018-08-16T01:59:48.696Z,1029.66518357
2018-08-16T02:00:01.226Z,1029.66518357
2018-08-16T02:00:13.788Z,1029.52972804
2018-08-16T02:00:26.327Z,1029.52972804
2018-08-16T02:00:38.861Z,1029.52972804
2018-08-16T02:00:51.397Z,1029.52972804
2018-08-16T02:01:03.962Z,1029.46200028
2018-08-16T02:01:16.514Z,1029.46200028
2018-08-16T02:01:29.096Z,1029.46200028
2018-08-16T02:01:41.744Z,1029.46200028
2018-08-16T02:01:54.279Z,1029.46200028
2018-08-16T02:02:06.869Z,1029.52972804
2018-08-16T02:02:19.470Z,1029.52972804
2018-08-16T02:02:32.000Z,1029.52972804
2018-08-16T02:02:44.914Z,1029.52972804
2018-08-16T02:02:57.454Z,1029.52972804
2018-08-16T02:03:09.974Z,1029.4281364
2018-08-16T02:03:22.511Z,1029.4281364
2018-08-16T02:03:35.062Z,1029.4281364
2018-08-16T02:03:47.593Z,1029.4281364
2018-08-16T02:04:00.124Z,1029.4281364
2018-08-16T02:04:12.745Z,1029.52972804
2018-08-16T02:04:25.295Z,1029.52972804
2018-08-16T02:04:37.964Z,1029.52972804
2018-08-16T02:04:50.502Z,1029.52972804
2018-08-16T02:05:03.201Z,1029.52972804
2018-08-16T02:05:16.858Z,1029.52972804
2018-08-16T02:05:30.014Z,1029.52972804
2018-08-16T02:05:42.627Z,1029.52972804
2018-08-16T02:05:55.193Z,1029.52972804
2018-08-16T02:06:07.753Z,1029.52972804
2018-08-16T02:06:20.279Z,1029.52972804
2018-08-16T02:06:32.820Z,1029.52972804
2018-08-16T02:06:45.362Z,1029.52972804
2018-08-16T02:06:57.886Z,1029.52972804
2018-08-16T02:07:10.424Z,1029.46200028
2018-08-16T02:07:22.977Z,1029.46200028
2018-08-16T02:07:35.543Z,1029.46200028
2018-08-16T02:07:48.072Z,1029.46200028
2018-08-16T02:08:00.601Z,1029.59745581
2018-08-16T02:08:13.130Z,1029.59745581
2018-08-16T02:08:25.655Z,1029.59745581
2018-08-16T02:08:38.200Z,1029.59745581